Walsingham, United Kingdom
Current Conditions -  °F | °C
As of 11:50 AM on Sunday 23 Nov 2014 (Local Time) from EGYM Reporting Station
Moderate Rain Moderate Rain  
Wind Chill: 38°   Ceiling: 4800
Heat Index: 45°   Visibility: 6mi
Dew Point: 45°   Wind: 14mph
Humidity: 100%   Direction: 330°NNW
Pressure: 30"   Gusts: NA
Location:  52.89°N, 0.87°E
Report Text: EGYM 231150Z AUTO 33012KT 9999 RA FEW007/// BKN048/// 07/07 Q1016
Loading
Personal Weather Stations






























Interactive Weather Map New forecast layout! Learn more

10-Day Weather Forecast

Advertisements
Track Severe Weather on mobile